sensor_id;sensor_type;location;lat;lon;timestamp;P1;durP1;ratioP1;P2;durP2;ratioP2
20729;SDS011;10526;50.850;12.928;2022-08-01T00:00:03;9.60;;;4.60;;
20729;SDS011;10526;50.850;12.928;2022-08-01T00:04:29;8.82;;;4.35;;
20729;SDS011;10526;50.850;12.928;2022-08-01T00:08:51;9.57;;;4.50;;
20729;SDS011;10526;50.850;12.928;2022-08-01T00:13:13;9.05;;;4.78;;
20729;SDS011;10526;50.850;12.928;2022-08-01T00:17:35;8.95;;;4.43;;
20729;SDS011;10526;50.850;12.928;2022-08-01T00:21:58;9.50;;;4.85;;
20729;SDS011;10526;50.850;12.928;2022-08-01T00:26:20;15.50;;;5.10;;
20729;SDS011;10526;50.850;12.928;2022-08-01T00:30:42;7.90;;;4.50;;
20729;SDS011;10526;50.850;12.928;2022-08-01T00:35:05;10.63;;;5.00;;
20729;SDS011;10526;50.850;12.928;2022-08-01T00:39:28;9.73;;;4.70;;
20729;SDS011;10526;50.850;12.928;2022-08-01T00:43:50;13.52;;;4.90;;
20729;SDS011;10526;50.850;12.928;2022-08-01T00:48:12;9.05;;;4.90;;
20729;SDS011;10526;50.850;12.928;2022-08-01T00:52:34;11.52;;;4.78;;
20729;SDS011;10526;50.850;12.928;2022-08-01T00:56:57;9.65;;;5.53;;
20729;SDS011;10526;50.850;12.928;2022-08-01T01:01:20;9.40;;;5.38;;
20729;SDS011;10526;50.850;12.928;2022-08-01T01:05:45;11.50;;;4.97;;
20729;SDS011;10526;50.850;12.928;2022-08-01T01:10:24;11.65;;;5.22;;
20729;SDS011;10526;50.850;12.928;2022-08-01T01:19:32;8.50;;;4.75;;
20729;SDS011;10526;50.850;12.928;2022-08-01T01:24:04;8.00;;;4.13;;
20729;SDS011;10526;50.850;12.928;2022-08-01T01:34:21;9.73;;;4.30;;
20729;SDS011;10526;50.850;12.928;2022-08-01T01:38:45;9.38;;;4.75;;
20729;SDS011;10526;50.850;12.928;2022-08-01T01:43:09;8.23;;;4.30;;
20729;SDS011;10526;50.850;12.928;2022-08-01T01:47:33;8.07;;;4.35;;
20729;SDS011;10526;50.850;12.928;2022-08-01T01:51:57;9.82;;;4.63;;
20729;SDS011;10526;50.850;12.928;2022-08-01T01:56:23;8.45;;;4.80;;
20729;SDS011;10526;50.850;12.928;2022-08-01T02:00:47;11.23;;;4.85;;
20729;SDS011;10526;50.850;12.928;2022-08-01T02:05:11;12.20;;;5.22;;
20729;SDS011;10526;50.850;12.928;2022-08-01T02:09:35;7.22;;;4.30;;
20729;SDS011;10526;50.850;12.928;2022-08-01T02:13:59;12.02;;;5.00;;
20729;SDS011;10526;50.850;12.928;2022-08-01T02:18:24;7.72;;;4.32;;
20729;SDS011;10526;50.850;12.928;2022-08-01T02:22:48;10.10;;;4.90;;
20729;SDS011;10526;50.850;12.928;2022-08-01T02:27:15;10.18;;;4.30;;
20729;SDS011;10526;50.850;12.928;2022-08-01T02:32:00;9.00;;;4.63;;
20729;SDS011;10526;50.850;12.928;2022-08-01T02:36:25;9.75;;;4.90;;
20729;SDS011;10526;50.850;12.928;2022-08-01T02:40:54;10.90;;;4.88;;
20729;SDS011;10526;50.850;12.928;2022-08-01T02:45:23;10.60;;;5.20;;
20729;SDS011;10526;50.850;12.928;2022-08-01T02:49:47;13.02;;;5.20;;
20729;SDS011;10526;50.850;12.928;2022-08-01T02:54:14;11.10;;;5.13;;
20729;SDS011;10526;50.850;12.928;2022-08-01T02:58:38;9.20;;;4.88;;
20729;SDS011;10526;50.850;12.928;2022-08-01T03:03:02;8.93;;;4.88;;
20729;SDS011;10526;50.850;12.928;2022-08-01T03:07:27;10.75;;;5.35;;
20729;SDS011;10526;50.850;12.928;2022-08-01T03:11:55;12.48;;;5.28;;
20729;SDS011;10526;50.850;12.928;2022-08-01T03:16:22;10.50;;;4.82;;
20729;SDS011;10526;50.850;12.928;2022-08-01T03:20:47;9.20;;;4.65;;
20729;SDS011;10526;50.850;12.928;2022-08-01T03:25:12;12.32;;;4.80;;
20729;SDS011;10526;50.850;12.928;2022-08-01T03:29:36;10.93;;;5.07;;
20729;SDS011;10526;50.850;12.928;2022-08-01T03:34:00;10.38;;;5.20;;
20729;SDS011;10526;50.850;12.928;2022-08-01T03:38:26;9.60;;;4.95;;
20729;SDS011;10526;50.850;12.928;2022-08-01T03:42:58;12.10;;;5.47;;
20729;SDS011;10526;50.850;12.928;2022-08-01T03:47:37;13.68;;;4.90;;
20729;SDS011;10526;50.850;12.928;2022-08-01T03:52:06;10.77;;;4.95;;
20729;SDS011;10526;50.850;12.928;2022-08-01T03:56:30;9.65;;;4.70;;
20729;SDS011;10526;50.850;12.928;2022-08-01T04:00:53;9.10;;;5.05;;
20729;SDS011;10526;50.850;12.928;2022-08-01T04:05:16;8.55;;;4.70;;
20729;SDS011;10526;50.850;12.928;2022-08-01T04:09:39;10.45;;;4.63;;
20729;SDS011;10526;50.850;12.928;2022-08-01T04:14:03;9.50;;;4.40;;
20729;SDS011;10526;50.850;12.928;2022-08-01T04:18:29;10.13;;;3.40;;
20729;SDS011;10526;50.850;12.928;2022-08-01T04:22:51;9.38;;;3.88;;
20729;SDS011;10526;50.850;12.928;2022-08-01T04:27:13;8.35;;;3.88;;
20729;SDS011;10526;50.850;12.928;2022-08-01T04:32:03;7.47;;;3.13;;
20729;SDS011;10526;50.850;12.928;2022-08-01T04:36:26;6.15;;;3.20;;
20729;SDS011;10526;50.850;12.928;2022-08-01T04:40:49;7.15;;;3.58;;
20729;SDS011;10526;50.850;12.928;2022-08-01T04:45:13;6.35;;;3.40;;
20729;SDS011;10526;50.850;12.928;2022-08-01T04:49:35;6.35;;;3.53;;
20729;SDS011;10526;50.850;12.928;2022-08-01T04:54:09;8.10;;;3.33;;
20729;SDS011;10526;50.850;12.928;2022-08-01T04:58:31;6.35;;;3.78;;
20729;SDS011;10526;50.850;12.928;2022-08-01T05:02:53;7.45;;;3.85;;
20729;SDS011;10526;50.850;12.928;2022-08-01T05:07:15;12.60;;;4.55;;
20729;SDS011;10526;50.850;12.928;2022-08-01T05:11:37;8.82;;;4.60;;
20729;SDS011;10526;50.850;12.928;2022-08-01T05:15:59;9.32;;;4.97;;
20729;SDS011;10526;50.850;12.928;2022-08-01T05:20:25;10.57;;;5.32;;
20729;SDS011;10526;50.850;12.928;2022-08-01T05:24:47;11.07;;;5.72;;
20729;SDS011;10526;50.850;12.928;2022-08-01T05:29:10;12.43;;;4.85;;
20729;SDS011;10526;50.850;12.928;2022-08-01T05:33:31;10.75;;;5.35;;
20729;SDS011;10526;50.850;12.928;2022-08-01T05:37:53;8.90;;;5.05;;
20729;SDS011;10526;50.850;12.928;2022-08-01T05:42:16;10.00;;;5.25;;
20729;SDS011;10526;50.850;12.928;2022-08-01T05:46:38;11.63;;;4.57;;
20729;SDS011;10526;50.850;12.928;2022-08-01T05:51:00;9.63;;;5.43;;
20729;SDS011;10526;50.850;12.928;2022-08-01T05:55:22;9.93;;;4.97;;
20729;SDS011;10526;50.850;12.928;2022-08-01T05:59:44;13.52;;;5.05;;
20729;SDS011;10526;50.850;12.928;2022-08-01T06:04:06;10.25;;;5.00;;
20729;SDS011;10526;50.850;12.928;2022-08-01T06:08:28;9.60;;;4.43;;
20729;SDS011;10526;50.850;12.928;2022-08-01T06:12:51;9.50;;;4.28;;
20729;SDS011;10526;50.850;12.928;2022-08-01T06:17:13;8.63;;;3.92;;
20729;SDS011;10526;50.850;12.928;2022-08-01T06:21:36;9.48;;;4.78;;
20729;SDS011;10526;50.850;12.928;2022-08-01T06:25:58;8.23;;;4.55;;
20729;SDS011;10526;50.850;12.928;2022-08-01T06:30:20;9.70;;;3.80;;
20729;SDS011;10526;50.850;12.928;2022-08-01T06:34:42;8.98;;;3.97;;
20729;SDS011;10526;50.850;12.928;2022-08-01T06:39:04;10.80;;;4.03;;
20729;SDS011;10526;50.850;12.928;2022-08-01T06:43:26;7.72;;;3.67;;
20729;SDS011;10526;50.850;12.928;2022-08-01T06:47:48;12.48;;;3.92;;
20729;SDS011;10526;50.850;12.928;2022-08-01T06:52:11;9.80;;;3.80;;
20729;SDS011;10526;50.850;12.928;2022-08-01T06:56:33;6.35;;;3.40;;
20729;SDS011;10526;50.850;12.928;2022-08-01T07:00:56;7.45;;;3.05;;
20729;SDS011;10526;50.850;12.928;2022-08-01T07:05:19;12.50;;;3.35;;
20729;SDS011;10526;50.850;12.928;2022-08-01T07:09:42;9.82;;;3.58;;
20729;SDS011;10526;50.850;12.928;2022-08-01T07:14:04;7.55;;;3.10;;
20729;SDS011;10526;50.850;12.928;2022-08-01T07:35:12;8.20;;;2.22;;
20729;SDS011;10526;50.850;12.928;2022-08-01T07:39:34;6.65;;;3.08;;
20729;SDS011;10526;50.850;12.928;2022-08-01T07:43:56;6.15;;;3.00;;
20729;SDS011;10526;50.850;12.928;2022-08-01T07:48:24;9.18;;;3.75;;
20729;SDS011;10526;50.850;12.928;2022-08-01T07:52:46;8.25;;;3.05;;
20729;SDS011;10526;50.850;12.928;2022-08-01T07:57:08;4.38;;;2.53;;
20729;SDS011;10526;50.850;12.928;2022-08-01T08:01:31;7.00;;;3.10;;
20729;SDS011;10526;50.850;12.928;2022-08-01T08:05:53;6.03;;;2.70;;
20729;SDS011;10526;50.850;12.928;2022-08-01T08:10:20;6.70;;;2.53;;
20729;SDS011;10526;50.850;12.928;2022-08-01T08:14:42;7.45;;;2.70;;
20729;SDS011;10526;50.850;12.928;2022-08-01T08:19:04;2.85;;;2.00;;
20729;SDS011;10526;50.850;12.928;2022-08-01T08:23:26;5.75;;;2.05;;
20729;SDS011;10526;50.850;12.928;2022-08-01T08:28:07;8.52;;;1.83;;
20729;SDS011;10526;50.850;12.928;2022-08-01T08:32:29;5.32;;;2.05;;
20729;SDS011;10526;50.850;12.928;2022-08-01T08:36:50;2.53;;;1.30;;
20729;SDS011;10526;50.850;12.928;2022-08-01T08:41:14;4.60;;;1.10;;
20729;SDS011;10526;50.850;12.928;2022-08-01T08:45:41;3.78;;;1.38;;
20729;SDS011;10526;50.850;12.928;2022-08-01T08:50:20;2.90;;;1.52;;
20729;SDS011;10526;50.850;12.928;2022-08-01T08:54:42;1.80;;;1.00;;
20729;SDS011;10526;50.850;12.928;2022-08-01T08:59:06;2.17;;;1.13;;
20729;SDS011;10526;50.850;12.928;2022-08-01T09:03:28;2.85;;;1.27;;
20729;SDS011;10526;50.850;12.928;2022-08-01T09:07:50;8.88;;;2.28;;
20729;SDS011;10526;50.850;12.928;2022-08-01T09:12:15;2.85;;;0.85;;
20729;SDS011;10526;50.850;12.928;2022-08-01T09:16:43;6.32;;;1.40;;
20729;SDS011;10526;50.850;12.928;2022-08-01T09:21:10;2.65;;;1.10;;
20729;SDS011;10526;50.850;12.928;2022-08-01T09:25:49;1.92;;;0.75;;
20729;SDS011;10526;50.850;12.928;2022-08-01T09:30:19;2.70;;;1.30;;
20729;SDS011;10526;50.850;12.928;2022-08-01T09:34:46;2.90;;;1.02;;
20729;SDS011;10526;50.850;12.928;2022-08-01T09:39:12;2.05;;;1.00;;
20729;SDS011;10526;50.850;12.928;2022-08-01T09:43:36;3.33;;;1.02;;
20729;SDS011;10526;50.850;12.928;2022-08-01T09:48:05;4.13;;;1.02;;
20729;SDS011;10526;50.850;12.928;2022-08-01T09:52:33;6.30;;;1.20;;
20729;SDS011;10526;50.850;12.928;2022-08-01T09:57:06;4.10;;;1.30;;
20729;SDS011;10526;50.850;12.928;2022-08-01T10:01:43;1.33;;;1.00;;
20729;SDS011;10526;50.850;12.928;2022-08-01T10:06:20;1.63;;;1.00;;
20729;SDS011;10526;50.850;12.928;2022-08-01T10:11:31;2.45;;;1.38;;
20729;SDS011;10526;50.850;12.928;2022-08-01T10:15:36;2.15;;;0.90;;
20729;SDS011;10526;50.850;12.928;2022-08-01T10:20:02;3.95;;;1.30;;
20729;SDS011;10526;50.850;12.928;2022-08-01T10:24:46;8.32;;;1.73;;
20729;SDS011;10526;50.850;12.928;2022-08-01T10:29:10;2.10;;;0.90;;
20729;SDS011;10526;50.850;12.928;2022-08-01T10:33:54;3.13;;;0.90;;
20729;SDS011;10526;50.850;12.928;2022-08-01T10:38:19;1.58;;;0.85;;
20729;SDS011;10526;50.850;12.928;2022-08-01T10:42:42;3.63;;;1.02;;
20729;SDS011;10526;50.850;12.928;2022-08-01T10:47:08;3.75;;;1.17;;
20729;SDS011;10526;50.850;12.928;2022-08-01T10:51:42;3.67;;;0.85;;
20729;SDS011;10526;50.850;12.928;2022-08-01T10:56:14;2.20;;;1.02;;
20729;SDS011;10526;50.850;12.928;2022-08-01T11:00:38;1.42;;;0.70;;
20729;SDS011;10526;50.850;12.928;2022-08-01T11:05:02;5.97;;;0.93;;
20729;SDS011;10526;50.850;12.928;2022-08-01T11:09:45;3.40;;;1.08;;
20729;SDS011;10526;50.850;12.928;2022-08-01T11:14:11;1.42;;;0.80;;
20729;SDS011;10526;50.850;12.928;2022-08-01T11:18:37;4.97;;;0.75;;
20729;SDS011;10526;50.850;12.928;2022-08-01T11:23:17;3.33;;;1.05;;
20729;SDS011;10526;50.850;12.928;2022-08-01T11:27:41;2.70;;;1.00;;
20729;SDS011;10526;50.850;12.928;2022-08-01T11:32:26;2.78;;;1.10;;
20729;SDS011;10526;50.850;12.928;2022-08-01T11:36:48;2.67;;;1.00;;
20729;SDS011;10526;50.850;12.928;2022-08-01T11:41:23;1.90;;;1.05;;
20729;SDS011;10526;50.850;12.928;2022-08-01T11:45:59;5.05;;;1.10;;
20729;SDS011;10526;50.850;12.928;2022-08-01T11:54:54;4.80;;;0.80;;
20729;SDS011;10526;50.850;12.928;2022-08-01T11:59:35;1.90;;;0.85;;
20729;SDS011;10526;50.850;12.928;2022-08-01T12:09:34;0.57;;;0.50;;
20729;SDS011;10526;50.850;12.928;2022-08-01T12:13:56;7.40;;;0.90;;
20729;SDS011;10526;50.850;12.928;2022-08-01T12:18:22;3.78;;;1.10;;
20729;SDS011;10526;50.850;12.928;2022-08-01T12:22:44;3.00;;;0.85;;
20729;SDS011;10526;50.850;12.928;2022-08-01T12:27:10;2.45;;;0.70;;
20729;SDS011;10526;50.850;12.928;2022-08-01T12:31:34;0.77;;;0.50;;
20729;SDS011;10526;50.850;12.928;2022-08-01T12:35:56;8.32;;;0.85;;
20729;SDS011;10526;50.850;12.928;2022-08-01T12:44:46;4.00;;;0.88;;
20729;SDS011;10526;50.850;12.928;2022-08-01T12:49:13;2.10;;;1.02;;
20729;SDS011;10526;50.850;12.928;2022-08-01T12:53:35;2.70;;;0.70;;
20729;SDS011;10526;50.850;12.928;2022-08-01T12:58:05;0.80;;;0.50;;
20729;SDS011;10526;50.850;12.928;2022-08-01T13:02:35;2.13;;;0.70;;
20729;SDS011;10526;50.850;12.928;2022-08-01T13:06:58;5.00;;;0.85;;
20729;SDS011;10526;50.850;12.928;2022-08-01T13:11:20;0.80;;;0.80;;
20729;SDS011;10526;50.850;12.928;2022-08-01T13:15:42;0.70;;;0.60;;
20729;SDS011;10526;50.850;12.928;2022-08-01T13:20:06;1.92;;;0.55;;
20729;SDS011;10526;50.850;12.928;2022-08-01T13:24:29;1.23;;;0.57;;
20729;SDS011;10526;50.850;12.928;2022-08-01T13:29:04;1.10;;;0.60;;
20729;SDS011;10526;50.850;12.928;2022-08-01T13:33:28;2.90;;;0.65;;
20729;SDS011;10526;50.850;12.928;2022-08-01T13:38:20;1.85;;;0.60;;
20729;SDS011;10526;50.850;12.928;2022-08-01T13:43:03;1.83;;;0.40;;
20729;SDS011;10526;50.850;12.928;2022-08-01T13:47:25;1.27;;;0.50;;
20729;SDS011;10526;50.850;12.928;2022-08-01T13:51:52;2.00;;;0.30;;
20729;SDS011;10526;50.850;12.928;2022-08-01T13:56:14;3.80;;;0.77;;
20729;SDS011;10526;50.850;12.928;2022-08-01T14:00:39;5.03;;;0.80;;
20729;SDS011;10526;50.850;12.928;2022-08-01T14:05:01;3.85;;;0.90;;
20729;SDS011;10526;50.850;12.928;2022-08-01T14:09:24;0.63;;;0.63;;
20729;SDS011;10526;50.850;12.928;2022-08-01T14:13:52;4.28;;;0.95;;
20729;SDS011;10526;50.850;12.928;2022-08-01T14:18:15;2.72;;;0.80;;
20729;SDS011;10526;50.850;12.928;2022-08-01T14:22:37;1.30;;;0.30;;
20729;SDS011;10526;50.850;12.928;2022-08-01T14:27:01;5.93;;;1.20;;
20729;SDS011;10526;50.850;12.928;2022-08-01T14:31:23;1.60;;;0.70;;
20729;SDS011;10526;50.850;12.928;2022-08-01T14:35:49;0.73;;;0.63;;
20729;SDS011;10526;50.850;12.928;2022-08-01T14:40:26;3.45;;;0.95;;
20729;SDS011;10526;50.850;12.928;2022-08-01T14:44:48;4.30;;;1.02;;
20729;SDS011;10526;50.850;12.928;2022-08-01T14:49:10;4.40;;;1.85;;
20729;SDS011;10526;50.850;12.928;2022-08-01T14:53:33;1.90;;;1.23;;
20729;SDS011;10526;50.850;12.928;2022-08-01T14:57:57;2.33;;;1.35;;
20729;SDS011;10526;50.850;12.928;2022-08-01T15:02:19;2.83;;;1.20;;
20729;SDS011;10526;50.850;12.928;2022-08-01T15:06:41;2.45;;;1.27;;
20729;SDS011;10526;50.850;12.928;2022-08-01T15:11:03;3.10;;;1.27;;
20729;SDS011;10526;50.850;12.928;2022-08-01T15:15:26;3.63;;;1.92;;
20729;SDS011;10526;50.850;12.928;2022-08-01T15:19:49;2.65;;;1.00;;
20729;SDS011;10526;50.850;12.928;2022-08-01T15:24:14;14.88;;;1.20;;
20729;SDS011;10526;50.850;12.928;2022-08-01T15:28:37;3.35;;;1.30;;
20729;SDS011;10526;50.850;12.928;2022-08-01T15:32:59;1.77;;;1.02;;
20729;SDS011;10526;50.850;12.928;2022-08-01T15:37:21;2.30;;;1.15;;
20729;SDS011;10526;50.850;12.928;2022-08-01T15:41:43;2.25;;;1.23;;
20729;SDS011;10526;50.850;12.928;2022-08-01T15:46:05;1.85;;;1.42;;
20729;SDS011;10526;50.850;12.928;2022-08-01T15:50:27;7.45;;;1.85;;
20729;SDS011;10526;50.850;12.928;2022-08-01T15:54:49;3.50;;;1.70;;
20729;SDS011;10526;50.850;12.928;2022-08-01T15:59:11;4.65;;;1.55;;
20729;SDS011;10526;50.850;12.928;2022-08-01T16:03:34;6.53;;;2.75;;
20729;SDS011;10526;50.850;12.928;2022-08-01T16:07:56;4.50;;;1.73;;
20729;SDS011;10526;50.850;12.928;2022-08-01T16:12:21;2.28;;;1.30;;
20729;SDS011;10526;50.850;12.928;2022-08-01T16:16:43;3.33;;;1.50;;
20729;SDS011;10526;50.850;12.928;2022-08-01T16:21:08;1.63;;;1.35;;
20729;SDS011;10526;50.850;12.928;2022-08-01T16:25:33;1.35;;;1.25;;
20729;SDS011;10526;50.850;12.928;2022-08-01T16:29:55;5.00;;;1.13;;
20729;SDS011;10526;50.850;12.928;2022-08-01T16:34:18;3.15;;;1.33;;
20729;SDS011;10526;50.850;12.928;2022-08-01T16:38:43;1.90;;;1.40;;
20729;SDS011;10526;50.850;12.928;2022-08-01T16:43:06;1.23;;;1.13;;
20729;SDS011;10526;50.850;12.928;2022-08-01T16:47:30;2.47;;;1.40;;
20729;SDS011;10526;50.850;12.928;2022-08-01T16:51:53;1.73;;;1.33;;
20729;SDS011;10526;50.850;12.928;2022-08-01T16:56:15;3.47;;;1.60;;
20729;SDS011;10526;50.850;12.928;2022-08-01T17:00:37;2.80;;;1.15;;
20729;SDS011;10526;50.850;12.928;2022-08-01T17:05:03;1.83;;;1.30;;
20729;SDS011;10526;50.850;12.928;2022-08-01T17:09:32;2.35;;;1.30;;
20729;SDS011;10526;50.850;12.928;2022-08-01T17:14:01;2.50;;;1.40;;
20729;SDS011;10526;50.850;12.928;2022-08-01T17:18:23;2.92;;;1.30;;
20729;SDS011;10526;50.850;12.928;2022-08-01T17:22:45;1.60;;;1.23;;
20729;SDS011;10526;50.850;12.928;2022-08-01T17:27:07;1.52;;;1.25;;
20729;SDS011;10526;50.850;12.928;2022-08-01T17:31:33;5.43;;;1.60;;
20729;SDS011;10526;50.850;12.928;2022-08-01T17:35:55;4.78;;;2.22;;
20729;SDS011;10526;50.850;12.928;2022-08-01T17:40:17;2.05;;;1.35;;
20729;SDS011;10526;50.850;12.928;2022-08-01T17:44:59;1.88;;;1.30;;
20729;SDS011;10526;50.850;12.928;2022-08-01T17:49:23;3.45;;;1.30;;
20729;SDS011;10526;50.850;12.928;2022-08-01T17:54:06;3.13;;;1.38;;
20729;SDS011;10526;50.850;12.928;2022-08-01T17:58:28;3.05;;;1.83;;
20729;SDS011;10526;50.850;12.928;2022-08-01T18:03:10;11.90;;;1.90;;
20729;SDS011;10526;50.850;12.928;2022-08-01T18:07:33;3.10;;;1.98;;
20729;SDS011;10526;50.850;12.928;2022-08-01T18:12:17;1.80;;;1.40;;
20729;SDS011;10526;50.850;12.928;2022-08-01T18:16:39;5.07;;;1.60;;
20729;SDS011;10526;50.850;12.928;2022-08-01T18:21:01;3.63;;;1.85;;
20729;SDS011;10526;50.850;12.928;2022-08-01T18:25:23;2.35;;;1.58;;
20729;SDS011;10526;50.850;12.928;2022-08-01T18:29:47;1.77;;;1.42;;
20729;SDS011;10526;50.850;12.928;2022-08-01T18:34:09;3.15;;;1.80;;
20729;SDS011;10526;50.850;12.928;2022-08-01T18:38:31;2.45;;;1.45;;
20729;SDS011;10526;50.850;12.928;2022-08-01T18:42:57;2.17;;;1.55;;
20729;SDS011;10526;50.850;12.928;2022-08-01T18:47:19;3.42;;;1.45;;
20729;SDS011;10526;50.850;12.928;2022-08-01T18:51:41;3.20;;;1.80;;
20729;SDS011;10526;50.850;12.928;2022-08-01T18:56:05;6.68;;;1.83;;
20729;SDS011;10526;50.850;12.928;2022-08-01T19:00:32;2.88;;;1.80;;
20729;SDS011;10526;50.850;12.928;2022-08-01T19:04:54;3.25;;;1.60;;
20729;SDS011;10526;50.850;12.928;2022-08-01T19:09:17;3.72;;;1.42;;
20729;SDS011;10526;50.850;12.928;2022-08-01T19:13:40;5.82;;;2.00;;
20729;SDS011;10526;50.850;12.928;2022-08-01T19:18:02;2.65;;;1.70;;
20729;SDS011;10526;50.850;12.928;2022-08-01T19:22:26;4.07;;;1.90;;
20729;SDS011;10526;50.850;12.928;2022-08-01T19:26:50;7.53;;;2.30;;
20729;SDS011;10526;50.850;12.928;2022-08-01T19:31:15;6.88;;;2.72;;
20729;SDS011;10526;50.850;12.928;2022-08-01T19:35:48;7.00;;;2.83;;
20729;SDS011;10526;50.850;12.928;2022-08-01T19:40:13;4.90;;;2.30;;
20729;SDS011;10526;50.850;12.928;2022-08-01T19:44:48;12.40;;;2.00;;
20729;SDS011;10526;50.850;12.928;2022-08-01T19:49:12;4.13;;;2.30;;
20729;SDS011;10526;50.850;12.928;2022-08-01T19:53:41;7.53;;;2.40;;
20729;SDS011;10526;50.850;12.928;2022-08-01T19:58:05;7.13;;;2.40;;
20729;SDS011;10526;50.850;12.928;2022-08-01T20:02:48;8.60;;;2.47;;
20729;SDS011;10526;50.850;12.928;2022-08-01T20:07:15;8.20;;;2.90;;
20729;SDS011;10526;50.850;12.928;2022-08-01T20:11:38;9.60;;;2.78;;
20729;SDS011;10526;50.850;12.928;2022-08-01T20:16:11;7.28;;;2.42;;
20729;SDS011;10526;50.850;12.928;2022-08-01T20:20:33;5.72;;;2.33;;
20729;SDS011;10526;50.850;12.928;2022-08-01T20:24:57;9.48;;;2.80;;
20729;SDS011;10526;50.850;12.928;2022-08-01T20:29:21;5.13;;;2.63;;
20729;SDS011;10526;50.850;12.928;2022-08-01T20:33:47;8.10;;;2.70;;
20729;SDS011;10526;50.850;12.928;2022-08-01T20:38:09;9.00;;;3.10;;
20729;SDS011;10526;50.850;12.928;2022-08-01T20:42:34;7.90;;;2.85;;
20729;SDS011;10526;50.850;12.928;2022-08-01T20:46:58;9.38;;;3.13;;
20729;SDS011;10526;50.850;12.928;2022-08-01T20:51:25;14.40;;;3.50;;
20729;SDS011;10526;50.850;12.928;2022-08-01T20:55:51;6.70;;;3.30;;
20729;SDS011;10526;50.850;12.928;2022-08-01T21:00:39;6.75;;;3.10;;
20729;SDS011;10526;50.850;12.928;2022-08-01T21:05:05;9.18;;;3.33;;
20729;SDS011;10526;50.850;12.928;2022-08-01T21:09:34;4.28;;;2.75;;
20729;SDS011;10526;50.850;12.928;2022-08-01T21:13:59;8.80;;;3.17;;
20729;SDS011;10526;50.850;12.928;2022-08-01T21:18:39;7.40;;;3.03;;
20729;SDS011;10526;50.850;12.928;2022-08-01T21:23:41;7.78;;;3.15;;
20729;SDS011;10526;50.850;12.928;2022-08-01T21:28:22;6.47;;;3.00;;
20729;SDS011;10526;50.850;12.928;2022-08-01T21:32:46;4.75;;;2.95;;
20729;SDS011;10526;50.850;12.928;2022-08-01T21:37:09;7.57;;;3.55;;
20729;SDS011;10526;50.850;12.928;2022-08-01T21:41:31;8.13;;;4.18;;
20729;SDS011;10526;50.850;12.928;2022-08-01T21:46:14;8.65;;;3.80;;
20729;SDS011;10526;50.850;12.928;2022-08-01T21:50:40;9.25;;;3.65;;
20729;SDS011;10526;50.850;12.928;2022-08-01T21:55:19;8.30;;;4.10;;
20729;SDS011;10526;50.850;12.928;2022-08-01T22:05:08;7.30;;;3.95;;
20729;SDS011;10526;50.850;12.928;2022-08-01T22:09:31;10.68;;;4.03;;
20729;SDS011;10526;50.850;12.928;2022-08-01T22:13:56;7.90;;;3.78;;
20729;SDS011;10526;50.850;12.928;2022-08-01T22:18:22;12.10;;;4.32;;
20729;SDS011;10526;50.850;12.928;2022-08-01T22:22:46;12.30;;;3.90;;
20729;SDS011;10526;50.850;12.928;2022-08-01T22:27:12;9.55;;;4.18;;
20729;SDS011;10526;50.850;12.928;2022-08-01T22:32:05;9.57;;;4.47;;
20729;SDS011;10526;50.850;12.928;2022-08-01T22:36:27;10.13;;;4.15;;
20729;SDS011;10526;50.850;12.928;2022-08-01T22:41:02;10.52;;;4.80;;
20729;SDS011;10526;50.850;12.928;2022-08-01T22:50:24;11.43;;;4.60;;
20729;SDS011;10526;50.850;12.928;2022-08-01T22:55:18;7.22;;;3.70;;
20729;SDS011;10526;50.850;12.928;2022-08-01T22:59:52;7.10;;;3.80;;
20729;SDS011;10526;50.850;12.928;2022-08-01T23:04:21;7.75;;;4.00;;
20729;SDS011;10526;50.850;12.928;2022-08-01T23:08:55;10.23;;;4.20;;
20729;SDS011;10526;50.850;12.928;2022-08-01T23:13:18;9.52;;;4.32;;
20729;SDS011;10526;50.850;12.928;2022-08-01T23:17:41;8.52;;;4.32;;
20729;SDS011;10526;50.850;12.928;2022-08-01T23:22:04;8.32;;;4.22;;
20729;SDS011;10526;50.850;12.928;2022-08-01T23:26:27;6.72;;;4.07;;
20729;SDS011;10526;50.850;12.928;2022-08-01T23:30:50;8.57;;;4.13;;
20729;SDS011;10526;50.850;12.928;2022-08-01T23:35:12;8.82;;;4.13;;
20729;SDS011;10526;50.850;12.928;2022-08-01T23:39:35;8.70;;;4.43;;
20729;SDS011;10526;50.850;12.928;2022-08-01T23:43:57;9.48;;;4.72;;
20729;SDS011;10526;50.850;12.928;2022-08-01T23:48:21;10.27;;;5.15;;
20729;SDS011;10526;50.850;12.928;2022-08-01T23:52:44;10.35;;;5.18;;
20729;SDS011;10526;50.850;12.928;2022-08-01T23:57:10;8.32;;;4.40;;
